Time,TemperatureF,DewpointF,PressureIn,WindDirection,WindDirectionDegrees,WindSpeedMPH,WindSpeedGustMPH,Humidity,HourlyPrecipIn,Conditions,Clouds,dailyrainin,SolarRadiationWatts/m^2,SoftwareType,DateUTC
2013-05-16 00:01:00,46.0,40.0,-100.00,SE,130,2.0,5.0,79,0.00,,,0.05,0.000000,,2013-05-16 06:01:00,
2013-05-16 00:33:00,47.0,37.0,-100.00,NE,44,0.0,4.0,67,0.00,,,0.05,0.000000,,2013-05-16 06:33:00,
2013-05-16 00:43:00,47.0,37.0,-100.00,NE,44,0.0,4.0,67,0.00,,,0.05,0.000000,,2013-05-16 06:43:00,
2013-05-16 00:53:00,47.0,37.0,-100.00,NE,44,0.0,4.0,67,0.00,,,0.05,0.000000,,2013-05-16 06:53:00,
2013-05-16 01:02:00,47.0,37.0,-100.00,NE,44,0.0,4.0,67,0.00,,,0.05,0.000000,,2013-05-16 07:02:00,
2013-05-16 01:34:00,45.0,36.0,-100.00,ESE,122,3.0,4.0,70,0.00,,,0.05,0.000000,,2013-05-16 07:34:00,
2013-05-16 01:44:00,45.0,36.0,-100.00,ESE,122,3.0,4.0,70,0.00,,,0.05,0.000000,,2013-05-16 07:44:00,
2013-05-16 01:54:00,45.0,36.0,-100.00,ESE,122,3.0,4.0,70,0.00,,,0.05,0.000000,,2013-05-16 07:54:00,
2013-05-16 02:03:00,45.0,36.0,-100.00,ESE,122,3.0,4.0,70,0.00,,,0.05,0.000000,,2013-05-16 08:03:00,
2013-05-16 02:35:00,45.0,33.0,-100.00,SE,144,3.0,4.0,63,0.00,,,0.05,0.000000,,2013-05-16 08:35:00,
2013-05-16 02:45:00,45.0,33.0,-100.00,SE,144,3.0,4.0,63,0.00,,,0.05,0.000000,,2013-05-16 08:45:00,
2013-05-16 02:55:00,45.0,33.0,-100.00,SE,144,3.0,4.0,63,0.00,,,0.05,0.000000,,2013-05-16 08:55:00,
2013-05-16 03:04:00,45.0,33.0,-100.00,SE,144,3.0,4.0,63,0.00,,,0.05,0.000000,,2013-05-16 09:04:00,
2013-05-16 03:35:00,45.0,36.0,-100.00,SSE,157,2.0,4.0,71,0.00,,,0.05,0.000000,,2013-05-16 09:35:00,
2013-05-16 03:45:00,45.0,36.0,-100.00,SSE,157,2.0,4.0,71,0.00,,,0.05,0.000000,,2013-05-16 09:45:00,
2013-05-16 03:55:00,45.0,36.0,-100.00,SSE,157,2.0,4.0,71,0.00,,,0.05,0.000000,,2013-05-16 09:55:00,
2013-05-16 04:04:00,45.0,36.0,-100.00,SSE,157,2.0,4.0,71,0.00,,,0.05,0.000000,,2013-05-16 10:04:00,
2013-05-16 04:36:00,46.0,35.0,-100.00,West,266,8.0,10.0,64,0.00,,,0.05,0.000000,,2013-05-16 10:36:00,
2013-05-16 04:45:00,46.0,35.0,-100.00,West,266,8.0,10.0,64,0.00,,,0.05,0.000000,,2013-05-16 10:45:00,
2013-05-16 04:56:00,46.0,35.0,-100.00,West,266,8.0,10.0,64,0.00,,,0.05,0.000000,,2013-05-16 10:56:00,
2013-05-16 05:05:00,46.0,35.0,-100.00,West,266,8.0,10.0,64,0.00,,,0.05,0.000000,,2013-05-16 11:05:00,
2013-05-16 05:35:00,45.0,36.0,-100.00,West,259,12.0,20.0,70,0.00,,,0.05,0.000000,,2013-05-16 11:35:00,
2013-05-16 05:46:00,45.0,36.0,-100.00,West,259,12.0,20.0,70,0.00,,,0.05,0.000000,,2013-05-16 11:46:00,
2013-05-16 05:56:00,45.0,36.0,-100.00,West,259,12.0,20.0,70,0.00,,,0.05,0.000000,,2013-05-16 11:56:00,
2013-05-16 06:05:00,45.0,36.0,-100.00,West,259,12.0,20.0,70,0.00,,,0.05,0.000000,,2013-05-16 12:05:00,
2013-05-16 06:35:00,42.0,35.0,-100.00,West,263,11.0,16.0,75,0.01,,,0.06,0.000000,,2013-05-16 12:35:00,
2013-05-16 06:45:00,42.0,35.0,-100.00,West,263,11.0,16.0,75,0.01,,,0.06,0.000000,,2013-05-16 12:45:00,
2013-05-16 06:53:00,42.0,35.0,-100.00,West,263,11.0,16.0,75,0.01,,,0.06,0.000000,,2013-05-16 12:53:00,
2013-05-16 07:04:00,42.0,35.0,-100.00,West,263,11.0,16.0,75,0.01,,,0.06,0.000000,,2013-05-16 13:04:00,
2013-05-16 07:35:00,43.0,37.0,-100.00,SW,234,1.0,15.0,80,0.00,,,-99.99,23.000000,,2013-05-16 13:35:00,
2013-05-16 07:43:00,43.0,37.0,-100.00,SW,234,1.0,15.0,80,0.00,,,-99.99,23.000000,,2013-05-16 13:43:00,
2013-05-16 07:55:00,43.0,37.0,-100.00,SW,234,1.0,15.0,80,0.00,,,-99.99,23.000000,,2013-05-16 13:55:00,
2013-05-16 08:05:00,43.0,37.0,-100.00,SW,234,1.0,15.0,80,0.00,,,-99.99,23.000000,,2013-05-16 14:05:00,
2013-05-16 08:37:00,42.0,36.0,-100.00,West,268,5.0,9.0,78,0.00,,,0.06,70.000000,,2013-05-16 14:37:00,
2013-05-16 08:47:00,42.0,36.0,-100.00,West,268,5.0,9.0,78,0.00,,,0.06,70.000000,,2013-05-16 14:47:00,
2013-05-16 08:56:00,42.0,36.0,-100.00,West,268,5.0,9.0,78,0.00,,,0.06,70.000000,,2013-05-16 14:56:00,
2013-05-16 09:08:00,42.0,36.0,-100.00,West,268,5.0,9.0,78,0.00,,,0.06,70.000000,,2013-05-16 15:08:00,
2013-05-16 09:09:00,42.0,38.0,-100.00,West,268,4.0,6.0,85,0.05,,,0.11,84.000000,,2013-05-16 15:09:00,
2013-05-16 09:40:00,42.0,38.0,-100.00,West,268,4.0,6.0,85,0.05,,,0.11,84.000000,,2013-05-16 15:40:00,
2013-05-16 09:50:00,42.0,38.0,-100.00,West,268,4.0,6.0,85,0.05,,,0.11,84.000000,,2013-05-16 15:50:00,
2013-05-16 10:00:00,42.0,38.0,-100.00,West,268,4.0,6.0,85,0.05,,,0.11,84.000000,,2013-05-16 16:00:00,
2013-05-16 10:09:00,43.0,39.0,-100.00,NW,304,3.0,7.0,86,0.01,,,0.12,184.000000,,2013-05-16 16:09:00,
2013-05-16 10:40:00,43.0,-99.9,-100.00,NW,304,3.0,7.0,86,0.01,,,0.12,184.000000,,2013-05-16 16:40:00,
2013-05-16 10:51:00,43.0,39.0,-100.00,NW,304,3.0,7.0,86,0.01,,,0.12,184.000000,,2013-05-16 16:51:00,
2013-05-16 11:00:00,43.0,39.0,-100.00,NW,304,3.0,7.0,86,0.01,,,0.12,184.000000,,2013-05-16 17:00:00,
2013-05-16 11:09:00,45.0,42.0,-100.00,NW,323,6.0,8.0,89,0.00,,,-99.99,289.000000,,2013-05-16 17:09:00,
2013-05-16 11:40:00,45.0,42.0,-100.00,NW,323,6.0,8.0,89,0.00,,,-99.99,289.000000,,2013-05-16 17:40:00,
2013-05-16 11:50:00,-999.0,-99.9,-100.00,NW,323,6.0,8.0,89,0.00,,,-99.99,289.000000,,2013-05-16 17:50:00,
2013-05-16 12:00:00,-999.0,-99.9,-100.00,NW,323,6.0,8.0,89,0.00,,,-99.99,289.000000,,2013-05-16 18:00:00,
2013-05-16 12:09:00,44.0,42.0,-100.00,NNW,337,7.0,12.0,92,0.00,,,0.12,213.000000,,2013-05-16 18:09:00,
2013-05-16 12:40:00,-999.0,-99.9,-100.00,NNW,337,7.0,12.0,92,0.00,,,0.12,213.000000,,2013-05-16 18:40:00,
2013-05-16 12:50:00,-999.0,-99.9,-100.00,NNW,337,7.0,12.0,92,0.00,,,0.12,213.000000,,2013-05-16 18:50:00,
2013-05-16 13:00:00,-999.0,-99.9,-100.00,NNW,337,7.0,12.0,92,0.00,,,0.12,213.000000,,2013-05-16 19:00:00,
2013-05-16 13:09:00,-999.0,-99.9,-100.00,NW,318,10.0,13.0,84,0.00,,,0.12,554.000000,,2013-05-16 19:09:00,
2013-05-16 13:40:00,49.0,-99.9,-100.00,NW,318,10.0,13.0,84,0.00,,,0.12,554.000000,,2013-05-16 19:40:00,
2013-05-16 13:51:00,-999.0,-99.9,-100.00,NW,318,10.0,13.0,84,0.00,,,0.12,554.000000,,2013-05-16 19:51:00,
2013-05-16 14:00:00,49.0,-99.9,-100.00,NW,318,10.0,13.0,84,0.00,,,0.12,554.000000,,2013-05-16 20:00:00,
2013-05-16 14:09:00,49.0,-99.9,-100.00,NNW,336,8.0,15.0,72,0.00,,,0.12,676.000000,,2013-05-16 20:09:00,
2013-05-16 14:41:00,-999.0,-99.9,-100.00,NNW,336,8.0,15.0,72,0.00,,,0.12,676.000000,,2013-05-16 20:41:00,
2013-05-16 14:51:00,49.0,40.0,-100.00,NNW,336,8.0,15.0,72,0.00,,,0.12,676.000000,,2013-05-16 20:51:00,
2013-05-16 15:00:00,49.0,-99.9,-100.00,NNW,336,8.0,15.0,72,0.00,,,0.12,676.000000,,2013-05-16 21:00:00,
2013-05-16 16:00:00,-999.0,-99.9,-100.00,NNW,332,8.0,14.0,73,0.00,,,0.12,483.000000,,2013-05-16 22:00:00,
2013-05-16 16:08:00,51.0,43.0,-100.00,NNW,332,8.0,14.0,73,0.00,,,0.12,483.000000,,2013-05-16 22:08:00,
2013-05-16 16:40:00,53.0,42.0,-100.00,NW,325,8.0,11.0,66,0.00,,,0.12,570.000000,,2013-05-16 22:40:00,
2013-05-16 16:51:00,53.0,42.0,-100.00,NW,325,8.0,11.0,66,0.00,,,0.12,570.000000,,2013-05-16 22:51:00,
2013-05-16 17:00:00,53.0,42.0,-100.00,NW,325,8.0,11.0,66,0.00,,,0.12,570.000000,,2013-05-16 23:00:00,
2013-05-16 17:06:00,53.0,42.0,-100.00,NW,325,8.0,11.0,66,0.00,,,0.12,570.000000,,2013-05-16 23:06:00,
2013-05-16 17:35:00,55.0,41.0,-100.00,NW,324,10.0,15.0,59,0.00,,,0.12,685.000000,,2013-05-16 23:35:00,
2013-05-16 17:45:00,55.0,41.0,-100.00,NW,324,10.0,15.0,59,0.00,,,0.12,685.000000,,2013-05-16 23:45:00,
2013-05-16 17:54:00,55.0,41.0,-100.00,NW,324,10.0,15.0,59,0.00,,,0.12,685.000000,,2013-05-16 23:54:00,
2013-05-16 18:02:00,55.0,41.0,-100.00,NW,324,10.0,15.0,59,0.00,,,0.12,685.000000,,2013-05-17 00:02:00,
2013-05-16 18:33:00,53.0,40.0,-100.00,NNW,331,9.0,14.0,61,0.00,,,-99.99,418.000000,,2013-05-17 00:33:00,
2013-05-16 18:44:00,53.0,40.0,-100.00,NNW,331,9.0,14.0,61,0.00,,,-99.99,418.000000,,2013-05-17 00:44:00,
2013-05-16 18:53:00,53.0,40.0,-100.00,NNW,331,9.0,14.0,61,0.00,,,-99.99,418.000000,,2013-05-17 00:53:00,
2013-05-16 19:03:00,53.0,40.0,-100.00,NNW,331,9.0,14.0,61,0.00,,,-99.99,418.000000,,2013-05-17 01:03:00,
2013-05-16 19:32:00,53.0,40.0,-100.00,NNW,332,7.0,14.0,61,0.00,,,0.11,340.000000,,2013-05-17 01:32:00,
2013-05-16 19:44:00,53.0,40.0,-100.00,NNW,332,7.0,14.0,61,0.00,,,0.11,340.000000,,2013-05-17 01:44:00,
2013-05-16 19:52:00,53.0,40.0,-100.00,NNW,332,7.0,14.0,61,0.00,,,0.11,340.000000,,2013-05-17 01:52:00,
2013-05-16 20:02:00,53.0,40.0,-100.00,NNW,332,7.0,14.0,61,0.00,,,0.11,340.000000,,2013-05-17 02:02:00,
2013-05-16 20:33:00,48.0,38.0,-100.00,NW,304,6.0,11.0,67,0.00,,,0.07,121.000000,,2013-05-17 02:33:00,
2013-05-16 20:42:00,48.0,38.0,-100.00,NW,304,6.0,11.0,67,0.00,,,0.07,121.000000,,2013-05-17 02:42:00,
2013-05-16 20:53:00,48.0,38.0,-100.00,NW,304,6.0,11.0,67,0.00,,,0.07,121.000000,,2013-05-17 02:53:00,
2013-05-16 21:01:00,48.0,38.0,-100.00,NW,304,6.0,11.0,67,0.00,,,0.07,121.000000,,2013-05-17 03:01:00,
2013-05-16 21:34:00,47.0,36.0,-100.00,West,276,5.0,10.0,66,0.00,,,0.07,20.000000,,2013-05-17 03:34:00,
2013-05-16 21:43:00,47.0,36.0,-100.00,West,276,5.0,10.0,66,0.00,,,0.07,20.000000,,2013-05-17 03:43:00,
2013-05-16 21:53:00,47.0,36.0,-100.00,West,276,5.0,10.0,66,0.00,,,0.07,20.000000,,2013-05-17 03:53:00,
2013-05-16 22:02:00,47.0,36.0,-100.00,West,276,5.0,10.0,66,0.00,,,0.07,20.000000,,2013-05-17 04:02:00,
2013-05-16 22:34:00,47.0,35.0,-100.00,NW,307,5.0,10.0,62,0.00,,,0.07,0.000000,,2013-05-17 04:34:00,
2013-05-16 22:43:00,47.0,35.0,-100.00,NW,307,5.0,10.0,62,0.00,,,0.07,0.000000,,2013-05-17 04:43:00,
2013-05-16 22:53:00,47.0,35.0,-100.00,NW,307,5.0,10.0,62,0.00,,,0.07,0.000000,,2013-05-17 04:53:00,
2013-05-16 23:02:00,47.0,35.0,-100.00,NW,307,5.0,10.0,62,0.00,,,0.07,0.000000,,2013-05-17 05:02:00,
2013-05-16 23:32:00,47.0,33.0,-100.00,WNW,283,5.0,9.0,59,0.00,,,0.07,0.000000,,2013-05-17 05:32:00,
2013-05-16 23:43:00,47.0,33.0,-100.00,WNW,283,5.0,9.0,59,0.00,,,0.07,0.000000,,2013-05-17 05:43:00,
2013-05-16 23:52:00,47.0,33.0,-100.00,WNW,283,5.0,9.0,59,0.00,,,0.07,0.000000,,2013-05-17 05:52:00,